Time;durP1;ratioP1;P1;durP2;ratioP2;P2;SDS_P1;SDS_P2;PMS_P1;PMS_P2;Temp;Humidity;BMP_temperature;BMP_pressure;BME280_temperature;BME280_humidity;BME280_pressure;Samples;Min_cycle;Max_cycle;Signal;HPM_P1;HPM_P2
2023/06/18 00:07:12;;;;;;;12.88;9.68;;;;;;;19.95;38.73;100292.44;20890887;28;20524;-74
2023/06/18 00:17:15;;;;;;;13.68;9.23;;;;;;;19.76;38.41;100295.47;20908146;28;20241;-74
2023/06/18 00:27:17;;;;;;;13.50;9.25;;;;;;;19.11;39.67;100293.09;20906602;28;20359;-74
2023/06/18 00:37:20;;;;;;;10.50;8.75;;;;;;;19.01;39.49;100300.31;20905149;28;20219;-75
2023/06/18 00:47:23;;;;;;;10.38;8.93;;;;;;;18.93;39.93;100304.28;20921137;28;20192;-74
2023/06/18 00:57:25;;;;;;;9.65;8.20;;;;;;;18.31;39.83;100306.59;20920946;28;20274;-74
2023/06/18 01:07:28;;;;;;;10.82;8.48;;;;;;;18.57;39.47;100295.19;20912028;28;20219;-74
2023/06/18 01:17:36;;;;;;;10.40;8.02;;;;;;;18.86;38.27;100281.34;20939027;28;20227;-74
2023/06/18 01:27:40;;;;;;;11.38;8.30;;;;;;;19.10;38.47;100280.84;20874672;28;20192;-74
2023/06/18 01:38:16;;;;;;;10.90;7.13;;;;;;;18.78;38.67;100283.31;20930519;28;20665;-74
2023/06/18 01:48:21;;;;;;;10.30;7.50;;;;;;;17.76;40.37;100276.75;20883596;28;20547;-74
2023/06/18 01:58:23;;;;;;;7.47;6.63;;;;;;;18.13;39.36;100265.59;20916962;28;20268;-74
2023/06/18 02:08:26;;;;;;;7.30;6.60;;;;;;;18.55;39.21;100271.97;20961572;28;20219;-74
2023/06/18 02:18:30;;;;;;;7.75;6.95;;;;;;;18.25;40.26;100263.34;20948665;28;20628;-76
2023/06/18 02:28:32;;;;;;;10.52;7.68;;;;;;;18.07;40.42;100272.81;20922489;28;20186;-73
2023/06/18 02:38:34;;;;;;;7.93;6.88;;;;;;;18.05;40.33;100264.69;20928261;28;20227;-76
2023/06/18 02:48:37;;;;;;;9.40;7.55;;;;;;;17.98;39.50;100252.31;20939177;28;20192;-74
2023/06/18 02:58:39;;;;;;;8.48;6.30;;;;;;;18.17;37.69;100243.69;20968514;28;20257;-75
2023/06/18 03:08:42;;;;;;;8.27;5.78;;;;;;;18.36;37.62;100242.75;20957061;28;20501;-74
2023/06/18 03:18:45;;;;;;;9.57;6.35;;;;;;;18.04;39.46;100245.13;20925155;28;20281;-74
2023/06/18 03:28:47;;;;;;;8.10;6.47;;;;;;;17.90;39.30;100243.66;20916159;28;20650;-74
2023/06/18 03:38:50;;;;;;;7.30;6.55;;;;;;;18.29;38.27;100246.34;20911169;28;20249;-73
2023/06/18 03:48:52;;;;;;;7.03;6.07;;;;;;;18.23;38.92;100247.84;20921221;28;20225;-74
2023/06/18 03:58:55;;;;;;;10.00;7.28;;;;;;;18.13;39.24;100254.22;20940380;28;20568;-74
2023/06/18 04:08:58;;;;;;;7.93;7.07;;;;;;;18.02;40.32;100264.59;20911175;28;20234;-73
2023/06/18 04:19:01;;;;;;;8.13;6.82;;;;;;;18.43;39.53;100257.13;20915616;28;20367;-74
2023/06/18 04:29:04;;;;;;;10.10;7.35;;;;;;;18.32;39.78;100267.53;20878947;28;20195;-74
2023/06/18 04:39:06;;;;;;;10.50;7.55;;;;;;;18.33;40.11;100269.97;20933329;28;20512;-73
2023/06/18 04:49:09;;;;;;;8.80;7.47;;;;;;;18.19;41.48;100266.91;20909822;28;20250;-73
2023/06/18 04:59:14;;;;;;;8.07;6.18;;;;;;;18.54;41.47;100270.31;20937022;28;20223;-74
2023/06/18 05:09:18;;;;;;;7.55;6.68;;;;;;;18.75;40.19;100271.84;20847189;28;20661;-77
2023/06/18 05:19:22;;;;;;;7.13;6.25;;;;;;;19.31;38.65;100269.75;20828411;28;20216;-74
2023/06/18 05:29:25;;;;;;;8.40;6.40;;;;;;;19.41;36.69;100267.41;20814171;28;20261;-74
2023/06/18 05:39:28;;;;;;;6.65;6.05;;;;;;;20.05;34.71;100277.44;20797980;28;20209;-74
2023/06/18 05:49:31;;;;;;;7.88;5.97;;;;;;;19.95;34.67;100273.28;20834420;28;20200;-74
2023/06/18 05:59:35;;;;;;;7.10;6.03;;;;;;;20.39;34.32;100278.13;20810868;28;20213;-75
2023/06/18 06:09:45;;;;;;;9.57;6.88;;;;;;;20.34;34.53;100275.63;20848470;28;20704;-73
2023/06/18 06:19:48;;;;;;;6.57;5.85;;;;;;;21.20;34.79;100282.69;20911938;28;20254;-74
2023/06/18 06:29:50;;;;;;;9.27;5.55;;;;;;;21.37;34.60;100271.31;20903487;28;20192;-74
2023/06/18 06:39:54;;;;;;;6.07;5.32;;;;;;;21.58;34.01;100275.44;20908099;28;20227;-75
2023/06/18 06:49:57;;;;;;;5.97;5.35;;;;;;;22.04;34.82;100267.75;20912207;28;20253;-75
2023/06/18 07:00:26;;;;;;;8.52;5.70;;;;;;;22.52;33.00;100277.97;20898231;28;20650;-75
2023/06/18 07:10:28;;;;;;;6.15;5.55;;;;;;;22.31;32.86;100284.53;20848154;28;20247;-74
2023/06/18 07:20:31;;;;;;;5.63;5.07;;;;;;;22.24;32.12;100278.78;20915530;28;20682;-72
2023/06/18 07:30:33;;;;;;;5.47;4.97;;;;;;;22.77;32.29;100288.16;20896608;28;20192;-77
2023/06/18 07:40:37;;;;;;;5.50;5.00;;;;;;;23.33;31.13;100283.47;20892618;28;20250;-76
2023/06/18 07:50:40;;;;;;;6.60;5.70;;;;;;;24.18;30.70;100277.19;20784048;28;20227;-77
2023/06/18 08:00:42;;;;;;;5.47;4.82;;;;;;;23.87;30.71;100261.03;20780426;28;20684;-75
2023/06/18 08:10:45;;;;;;;5.95;5.07;;;;;;;23.86;30.42;100256.50;20797485;28;20248;-74
2023/06/18 08:20:47;;;;;;;7.20;5.13;;;;;;;24.68;28.91;100259.47;20824715;28;20220;-75
2023/06/18 08:30:50;;;;;;;5.55;4.75;;;;;;;25.24;28.34;100251.41;20804117;28;20213;-73
2023/06/18 08:41:01;;;;;;;5.90;5.40;;;;;;;25.69;27.09;100254.09;20786212;28;20267;-75
2023/06/18 08:51:04;;;;;;;5.55;5.05;;;;;;;26.39;24.95;100239.75;20801372;28;20266;-72
2023/06/18 09:01:07;;;;;;;5.70;5.00;;;;;;;26.49;23.90;100233.00;20805923;28;20800;-75
2023/06/18 09:11:09;;;;;;;7.38;4.97;;;;;;;27.09;23.21;100233.84;20774884;28;20220;-72
2023/06/18 09:21:32;;;;;;;5.78;4.95;;;;;;;27.10;22.98;100229.72;20801574;28;20252;-77
2023/06/18 09:31:36;;;;;;;7.90;5.15;;;;;;;26.92;22.33;100219.34;20797483;28;20239;-73
2023/06/18 09:41:39;;;;;;;4.32;3.92;;;;;;;27.18;20.99;100234.88;20814142;28;20251;-77
2023/06/18 09:51:43;;;;;;;4.47;4.07;;;;;;;27.29;20.17;100223.09;20831024;28;20539;-76
2023/06/18 10:01:47;;;;;;;6.13;3.97;;;;;;;27.07;19.93;100222.75;20837834;28;20208;-76
2023/06/18 10:11:53;;;;;;;5.82;5.10;;;;;;;26.82;21.68;100223.28;20798751;28;20236;-76
2023/06/18 10:21:58;;;;;;;4.90;4.50;;;;;;;28.04;21.62;100199.03;20789795;28;20313;-72
2023/06/18 10:32:02;;;;;;;5.70;5.10;;;;;;;27.23;21.92;100188.13;20798049;28;20220;-78
2023/06/18 10:42:13;;;;;;;5.03;4.50;;;;;;;27.77;21.16;100186.91;20807511;28;20208;-76
2023/06/18 10:52:23;;;;;;;5.38;4.88;;;;;;;28.16;20.36;100169.34;20824762;28;20199;-76
2023/06/18 11:02:33;;;;;;;5.03;4.43;;;;;;;28.96;19.62;100149.31;20793110;28;20287;-73
2023/06/18 11:12:38;;;;;;;5.78;4.03;;;;;;;29.12;19.32;100146.31;20760882;28;20618;-76
2023/06/18 11:22:41;;;;;;;6.20;4.72;;;;;;;28.84;19.58;100142.19;20782074;28;20310;-77
2023/06/18 11:32:45;;;;;;;4.65;4.25;;;;;;;28.77;19.42;100136.63;20811991;28;20306;-76
2023/06/18 11:42:49;;;;;;;5.30;4.80;;;;;;;28.62;19.75;100132.50;20831321;28;20235;-77
2023/06/18 11:52:52;;;;;;;6.30;4.82;;;;;;;28.95;19.56;100119.53;20748218;28;20621;-78
2023/06/18 12:02:54;;;;;;;6.45;4.70;;;;;;;29.46;19.61;100107.97;20767550;28;20295;-77
2023/06/18 12:13:26;;;;;;;4.80;4.40;;;;;;;30.62;19.37;100095.56;20773417;28;20981;-78
2023/06/18 12:23:29;;;;;;;5.45;4.68;;;;;;;28.97;18.98;100093.78;20803297;28;20690;-77
2023/06/18 12:33:36;;;;;;;5.47;4.97;;;;;;;28.70;19.67;100081.81;20808689;28;20215;-75
2023/06/18 12:43:40;;;;;;;5.05;4.55;;;;;;;29.78;19.05;100077.88;20806898;28;20251;-77
2023/06/18 12:53:43;;;;;;;4.95;4.47;;;;;;;30.42;17.96;100070.56;20780136;28;20224;-76
2023/06/18 13:03:45;;;;;;;5.65;4.57;;;;;;;30.46;18.71;100058.81;20791579;28;20309;-77
2023/06/18 13:13:48;;;;;;;5.85;4.68;;;;;;;29.39;18.69;100050.22;20805585;28;20232;-74
2023/06/18 13:23:50;;;;;;;7.18;4.72;;;;;;;29.20;18.49;100043.41;20830136;28;20313;-73
2023/06/18 13:33:52;;;;;;;5.53;4.60;;;;;;;28.61;23.16;100033.25;20812991;28;20317;-77
2023/06/18 13:43:55;;;;;;;5.15;4.68;;;;;;;29.44;19.70;100026.44;20834435;28;20244;-76
2023/06/18 13:53:57;;;;;;;5.25;4.75;;;;;;;29.55;19.84;100021.09;20833421;28;20590;-78
2023/06/18 14:03:59;;;;;;;4.90;4.40;;;;;;;29.39;20.03;100018.34;20833826;28;20636;-77
2023/06/18 14:14:02;;;;;;;5.82;5.32;;;;;;;29.08;19.97;100018.13;20817420;28;20256;-75
2023/06/18 14:24:08;;;;;;;5.43;4.93;;;;;;;29.33;19.51;100011.53;20826049;28;20248;-79
2023/06/18 14:34:14;;;;;;;4.72;4.32;;;;;;;29.69;20.12;100002.38;20819174;28;20284;-78
2023/06/18 14:44:17;;;;;;;5.85;5.10;;;;;;;29.61;20.40;99998.13;20767533;28;20254;-73
2023/06/18 14:54:20;;;;;;;5.55;4.85;;;;;;;29.47;21.46;99993.63;20817084;28;20285;-79
2023/06/18 15:04:23;;;;;;;7.60;5.35;;;;;;;29.12;22.05;100002.22;20818484;28;20655;-73
2023/06/18 15:14:26;;;;;;;7.47;5.28;;;;;;;29.23;20.31;100001.09;20720725;28;20330;-78
2023/06/18 15:24:28;;;;;;;6.28;5.68;;;;;;;28.80;23.02;100002.50;20733515;28;20364;-78
2023/06/18 15:34:30;;;;;;;6.55;5.00;;;;;;;28.93;23.10;100000.41;20730807;28;20272;-76
2023/06/18 15:44:33;;;;;;;5.25;4.75;;;;;;;28.59;23.06;100003.13;20713651;28;20302;-77
2023/06/18 15:54:35;;;;;;;6.80;5.50;;;;;;;28.28;23.16;100005.75;20711568;28;20313;-77
2023/06/18 16:04:37;;;;;;;5.60;4.60;;;;;;;28.85;22.86;100004.78;20711599;28;20315;-76
2023/06/18 16:14:40;;;;;;;9.35;7.40;;;;;;;28.03;23.45;100000.69;20801252;28;20260;-77
2023/06/18 16:24:42;;;;;;;5.82;5.32;;;;;;;28.08;23.17;100000.09;20795977;28;20263;-76
2023/06/18 16:34:45;;;;;;;7.47;5.50;;;;;;;27.25;23.52;99994.94;20806498;28;20216;-76
2023/06/18 16:44:48;;;;;;;5.65;4.72;;;;;;;27.55;23.12;99987.13;20792960;28;20252;-77
2023/06/18 16:54:50;;;;;;;5.57;5.15;;;;;;;27.61;24.24;99974.56;20808580;28;20236;-76
2023/06/18 17:04:53;;;;;;;7.20;6.50;;;;;;;27.59;23.05;99979.19;20777730;28;20690;-76
2023/06/18 17:14:55;;;;;;;8.93;6.00;;;;;;;27.50;23.79;99974.06;20803678;28;20247;-75
2023/06/18 17:24:58;;;;;;;6.68;5.25;;;;;;;27.17;24.53;99960.88;20812742;28;20782;-76
2023/06/18 17:35:00;;;;;;;8.45;5.70;;;;;;;26.93;24.15;99946.63;20804533;28;20239;-76
2023/06/18 17:45:03;;;;;;;8.05;5.60;;;;;;;27.06;24.55;99950.41;20800560;28;20317;-76
2023/06/18 17:55:06;;;;;;;6.90;5.82;;;;;;;27.12;24.01;99935.44;20785498;28;20228;-75
2023/06/18 18:05:10;;;;;;;7.88;5.50;;;;;;;26.99;24.23;99924.63;20799032;28;20664;-76
2023/06/18 18:15:12;;;;;;;6.82;6.10;;;;;;;26.68;25.26;99924.13;20786089;28;20508;-77
2023/06/18 18:25:16;;;;;;;8.27;6.32;;;;;;;26.30;26.24;99932.47;20823506;28;20240;-76
2023/06/18 18:35:19;;;;;;;8.90;6.40;;;;;;;25.84;26.83;99921.94;20818517;28;20221;-76
2023/06/18 18:45:21;;;;;;;7.65;6.78;;;;;;;26.46;26.04;99916.44;20838698;28;20252;-76
2023/06/18 18:55:25;;;;;;;10.55;6.28;;;;;;;26.01;26.92;99908.38;20804002;28;20776;-75
2023/06/18 19:05:28;;;;;;;7.15;6.45;;;;;;;25.64;27.96;99918.19;20815621;28;20742;-76
2023/06/18 19:15:30;;;;;;;7.38;6.03;;;;;;;25.56;28.63;99905.19;20798443;28;20277;-76
2023/06/18 19:25:33;;;;;;;7.55;5.97;;;;;;;25.03;29.87;99909.88;20807348;28;20533;-75
2023/06/18 19:35:38;;;;;;;9.07;6.47;;;;;;;25.09;30.31;99921.69;20774874;28;20213;-76
2023/06/18 19:45:40;;;;;;;7.43;6.13;;;;;;;25.81;29.09;99927.78;20807968;28;20247;-76
2023/06/18 19:55:43;;;;;;;7.45;6.75;;;;;;;25.74;29.28;99933.66;20813503;28;20228;-75
2023/06/18 20:05:46;;;;;;;7.90;6.80;;;;;;;25.31;30.41;99934.50;20805933;28;20252;-76
2023/06/18 20:15:48;;;;;;;6.95;6.28;;;;;;;25.34;30.52;99927.03;20769835;28;20224;-76
2023/06/18 20:25:51;;;;;;;7.63;6.93;;;;;;;24.95;29.86;99917.00;20801714;28;20256;-77
2023/06/18 20:35:54;;;;;;;7.53;6.78;;;;;;;25.47;28.74;99925.94;20785401;28;20213;-76
2023/06/18 20:45:56;;;;;;;8.00;6.55;;;;;;;24.92;31.10;99915.84;20789778;28;20256;-76
2023/06/18 20:55:59;;;;;;;7.88;6.13;;;;;;;25.04;29.63;99907.81;20806511;28;20239;-76
2023/06/18 21:06:03;;;;;;;8.65;6.95;;;;;;;24.94;30.24;99904.66;20771140;28;20298;-76
2023/06/18 21:16:08;;;;;;;10.32;7.07;;;;;;;25.01;30.80;99902.94;20794267;28;20209;-76
2023/06/18 21:26:12;;;;;;;6.55;5.93;;;;;;;25.02;30.89;99916.06;20774770;28;20337;-77
2023/06/18 21:36:16;;;;;;;7.65;6.40;;;;;;;24.88;30.93;99917.13;20837960;28;20227;-75
2023/06/18 21:46:18;;;;;;;7.75;6.93;;;;;;;24.64;31.66;99919.19;20820454;28;20308;-75
2023/06/18 21:56:20;;;;;;;9.15;6.60;;;;;;;24.76;31.38;99912.00;20817427;28;20268;-75
2023/06/18 22:06:23;;;;;;;7.95;7.20;;;;;;;24.43;31.62;99907.97;20809177;28;20248;-75
2023/06/18 22:16:27;;;;;;;9.10;7.32;;;;;;;23.97;32.44;99920.94;20792195;28;20201;-75
2023/06/18 22:26:29;;;;;;;8.45;6.88;;;;;;;23.83;32.85;99929.75;20820400;28;20290;-74
2023/06/18 22:36:32;;;;;;;6.68;6.07;;;;;;;24.10;31.31;99932.72;20804031;28;20216;-74
2023/06/18 22:46:34;;;;;;;5.07;4.55;;;;;;;24.24;31.52;99926.75;20837965;28;20269;-74
2023/06/18 22:56:37;;;;;;;6.93;3.90;;;;;;;24.27;31.61;99927.97;20819758;28;20322;-74
2023/06/18 23:06:39;;;;;;;3.85;3.47;;;;;;;24.82;30.56;99911.06;20855289;28;20655;-74
2023/06/18 23:16:42;;;;;;;3.83;3.53;;;;;;;25.09;30.41;99878.50;20833219;28;20239;-75
2023/06/18 23:26:44;;;;;;;4.05;3.70;;;;;;;24.74;31.79;99852.00;20848068;28;20294;-74
2023/06/18 23:36:48;;;;;;;4.65;3.50;;;;;;;24.31;32.19;99830.94;20804975;28;20224;-74
2023/06/18 23:46:50;;;;;;;3.58;3.28;;;;;;;24.03;33.59;99826.44;20801704;28;20255;-75
2023/06/18 23:56:53;;;;;;;3.63;3.28;;;;;;;24.39;33.13;99833.28;20809010;28;20197;-75
